createdAt,value
2018-04-17T00:01:30.024Z,99.90
2018-04-17T00:03:57.521Z,99.90
2018-04-17T00:06:25.802Z,99.90
2018-04-17T00:08:54.061Z,99.90
2018-04-17T00:11:21.520Z,99.90
2018-04-17T00:13:49.779Z,99.90
2018-04-17T00:16:17.248Z,99.90
2018-04-17T00:18:44.736Z,99.90
2018-04-17T00:21:12.220Z,99.90
2018-04-17T00:23:39.745Z,99.90
2018-04-17T00:26:07.981Z,99.90
2018-04-17T00:28:35.480Z,99.90
2018-04-17T00:31:03.711Z,99.90
2018-04-17T00:33:31.173Z,99.90
2018-04-17T00:35:58.657Z,99.90
2018-04-17T00:38:26.913Z,99.90
2018-04-17T00:40:54.388Z,99.90
2018-04-17T00:43:21.844Z,99.90
2018-04-17T00:45:49.340Z,99.90
2018-04-17T00:48:16.808Z,99.90
2018-04-17T00:50:44.287Z,99.90
2018-04-17T00:53:23.768Z,99.90
2018-04-17T00:55:52.022Z,99.90
2018-04-17T00:58:19.492Z,99.90
2018-04-17T01:00:46.957Z,99.90
2018-04-17T01:03:14.446Z,99.90
2018-04-17T01:05:41.918Z,99.90
2018-04-17T01:08:09.396Z,99.90
2018-04-17T01:10:36.871Z,99.90
2018-04-17T01:13:05.128Z,99.90
2018-04-17T01:15:32.672Z,99.90
2018-04-17T01:18:00.192Z,99.90
2018-04-17T01:20:28.439Z,99.90
2018-04-17T01:22:55.928Z,99.90
2018-04-17T01:25:24.173Z,99.90
2018-04-17T01:27:51.668Z,99.90
2018-04-17T01:30:20.143Z,99.90
2018-04-17T01:32:48.381Z,99.90
2018-04-17T01:35:16.114Z,99.90
2018-04-17T01:37:43.592Z,99.90
2018-04-17T01:40:11.056Z,99.90
2018-04-17T01:42:38.541Z,99.90
2018-04-17T01:45:06.008Z,99.90
2018-04-17T01:47:34.284Z,99.90
2018-04-17T01:50:02.526Z,99.90
2018-04-17T01:52:30.002Z,99.90
2018-04-17T01:54:57.489Z,99.90
2018-04-17T01:57:25.712Z,99.90
2018-04-17T01:59:53.191Z,99.90
2018-04-17T02:02:20.659Z,99.90
2018-04-17T02:04:48.140Z,99.90
2018-04-17T02:07:16.364Z,99.90
2018-04-17T02:09:43.836Z,99.90
2018-04-17T02:12:11.320Z,99.90
2018-04-17T02:14:38.820Z,99.90
2018-04-17T02:17:06.304Z,99.90
2018-04-17T02:19:33.803Z,99.90
2018-04-17T02:22:02.044Z,99.90
2018-04-17T02:24:29.514Z,99.90
2018-04-17T02:26:57.100Z,99.90
2018-04-17T02:29:25.328Z,99.90
2018-04-17T02:31:52.800Z,99.90
2018-04-17T02:34:20.284Z,99.90
2018-04-17T02:36:48.524Z,99.90
2018-04-17T02:39:16.013Z,99.90
2018-04-17T02:41:44.252Z,99.90
2018-04-17T02:44:11.743Z,99.90
2018-04-17T02:46:39.200Z,99.90
2018-04-17T02:49:06.705Z,99.90
2018-04-17T02:51:34.184Z,99.90
2018-04-17T02:54:01.652Z,99.90
2018-04-17T02:56:29.140Z,99.90
2018-04-17T02:58:57.382Z,99.90
2018-04-17T03:01:24.872Z,99.90
2018-04-17T03:03:52.348Z,99.90
2018-04-17T03:06:20.589Z,99.90
2018-04-17T03:08:48.056Z,99.90
2018-04-17T03:11:15.565Z,99.90
2018-04-17T03:13:43.032Z,99.90
2018-04-17T03:16:10.504Z,99.90
2018-04-17T03:18:37.991Z,99.90
2018-04-17T03:21:05.504Z,99.90
2018-04-17T03:23:34.006Z,99.90
2018-04-17T03:26:01.481Z,99.90
2018-04-17T03:28:29.083Z,99.90
2018-04-17T03:30:56.581Z,99.90
2018-04-17T03:33:24.076Z,99.90
2018-04-17T03:35:52.324Z,99.90
2018-04-17T03:38:19.796Z,99.90
2018-04-17T03:40:47.308Z,99.90
2018-04-17T03:43:14.788Z,99.90
2018-04-17T03:45:42.266Z,99.90
2018-04-17T03:48:09.728Z,99.90
2018-04-17T03:50:37.218Z,99.90
2018-04-17T03:53:04.695Z,99.90
2018-04-17T03:55:32.168Z,99.90
2018-04-17T03:57:59.668Z,99.90
2018-04-17T04:00:27.166Z,99.90
2018-04-17T04:02:54.673Z,99.90
2018-04-17T04:05:22.145Z,99.90
2018-04-17T04:07:49.637Z,99.90
2018-04-17T04:10:17.115Z,99.90
2018-04-17T04:12:44.576Z,99.90
2018-04-17T04:15:12.060Z,99.90
2018-04-17T04:17:51.388Z,99.90
2018-04-17T04:20:30.840Z,99.90
2018-04-17T04:23:10.356Z,99.90
2018-04-17T04:28:42.773Z,99.90
2018-04-17T04:31:10.257Z,99.90
2018-04-17T04:33:38.492Z,99.90
2018-04-17T04:36:05.980Z,99.90
2018-04-17T04:38:33.448Z,99.90
2018-04-17T04:41:01.719Z,99.90
2018-04-17T04:43:30.038Z,99.90
2018-04-17T04:45:57.507Z,99.90
2018-04-17T04:48:24.996Z,99.90
2018-04-17T04:50:52.480Z,99.90
2018-04-17T04:53:20.743Z,99.90
2018-04-17T04:55:48.212Z,99.90
2018-04-17T04:58:16.462Z,99.90
2018-04-17T05:00:43.951Z,99.90
2018-04-17T05:03:12.247Z,99.90
2018-04-17T05:05:40.532Z,99.90
2018-04-17T05:08:08.092Z,99.90
2018-04-17T05:10:35.594Z,99.90
2018-04-17T05:13:03.884Z,99.90
2018-04-17T05:15:31.364Z,99.90
2018-04-17T05:17:59.612Z,99.90
2018-04-17T05:20:27.102Z,99.90
2018-04-17T05:22:55.336Z,99.90
2018-04-17T05:25:22.819Z,99.90
2018-04-17T05:27:51.057Z,99.90
2018-04-17T05:30:18.540Z,99.90
2018-04-17T05:32:47.531Z,99.90
2018-04-17T05:35:15.024Z,99.90
2018-04-17T05:37:42.508Z,99.90
2018-04-17T05:40:09.998Z,99.90
2018-04-17T05:42:37.472Z,99.90
2018-04-17T05:45:04.956Z,99.90
2018-04-17T05:47:32.660Z,99.90
2018-04-17T05:50:00.172Z,99.90
2018-04-17T05:52:28.715Z,99.90
2018-04-17T05:54:56.199Z,99.90
2018-04-17T05:57:23.669Z,99.90
2018-04-17T05:59:51.919Z,99.90
2018-04-17T06:02:19.399Z,99.90
2018-04-17T06:04:47.653Z,99.90
2018-04-17T06:07:15.136Z,99.90
2018-04-17T06:09:43.383Z,99.90
2018-04-17T06:12:10.868Z,99.90
2018-04-17T06:14:39.159Z,99.90
2018-04-17T06:17:07.408Z,99.90
2018-04-17T06:19:34.886Z,99.90
2018-04-17T06:22:03.146Z,99.90
2018-04-17T06:24:30.618Z,99.90
2018-04-17T06:26:58.880Z,99.90
2018-04-17T06:29:27.129Z,99.90
2018-04-17T06:31:54.620Z,99.90
2018-04-17T06:34:22.864Z,99.90
2018-04-17T06:36:50.356Z,99.90
2018-04-17T06:39:18.644Z,99.90
2018-04-17T06:41:46.173Z,99.90
2018-04-17T06:44:13.651Z,99.90
2018-04-17T06:46:41.996Z,99.90
2018-04-17T06:49:09.485Z,99.90
2018-04-17T06:51:37.741Z,99.90
2018-04-17T06:54:05.233Z,99.90
2018-04-17T06:56:33.464Z,99.90
2018-04-17T06:59:00.960Z,99.90
2018-04-17T07:01:29.191Z,99.90
2018-04-17T07:03:56.664Z,99.90
2018-04-17T07:06:24.143Z,99.90
2018-04-17T07:08:52.398Z,99.90
2018-04-17T07:11:19.885Z,99.90
2018-04-17T07:13:48.199Z,99.90
2018-04-17T07:16:15.689Z,99.90
2018-04-17T07:18:43.153Z,99.90
2018-04-17T07:21:10.644Z,99.90
2018-04-17T07:23:38.874Z,99.90
2018-04-17T07:26:06.342Z,99.90
2018-04-17T17:50:16.438Z,55.10
2018-04-17T17:52:44.002Z,55.50
2018-04-17T17:55:11.517Z,56.00
2018-04-17T17:57:39.020Z,56.50
2018-04-17T18:00:06.553Z,57.80
2018-04-17T18:02:34.824Z,58.10
2018-04-17T18:05:03.126Z,59.80
2018-04-17T18:07:30.583Z,59.70
2018-04-17T18:09:58.823Z,58.50
2018-04-17T18:12:26.303Z,58.50
2018-04-17T18:14:54.559Z,59.50
2018-04-17T18:17:22.027Z,59.40
2018-04-17T18:19:49.506Z,59.90
2018-04-17T18:22:17.762Z,60.10
2018-04-17T18:24:45.705Z,60.10
2018-04-17T18:27:13.199Z,60.30
2018-04-17T18:29:41.496Z,64.20
2018-04-17T18:32:09.051Z,64.00
2018-04-17T18:34:37.450Z,66.10
2018-04-17T18:37:04.936Z,66.00
2018-04-17T18:39:32.576Z,67.20
2018-04-17T18:42:00.053Z,68.00
2018-04-17T18:44:27.533Z,69.60
2018-04-17T18:46:55.079Z,68.90
2018-04-17T18:49:22.528Z,70.50
2018-04-17T18:51:50.026Z,70.90
2018-04-17T18:54:18.283Z,72.80
2018-04-17T18:56:46.577Z,73.70
2018-04-17T18:59:14.857Z,74.30
2018-04-17T19:01:43.113Z,75.30
2018-04-17T19:04:10.608Z,75.30
2018-04-17T19:06:38.865Z,76.70
2018-04-17T19:09:06.367Z,76.60
2018-04-17T19:11:33.860Z,77.40
2018-04-17T19:14:01.375Z,77.10
2018-04-17T19:16:28.867Z,77.50
2018-04-17T19:18:56.366Z,76.80
2018-04-17T19:21:24.606Z,78.80
2018-04-17T19:23:52.134Z,78.60
2018-04-17T19:26:20.636Z,78.80
2018-04-17T19:28:48.140Z,78.60
2018-04-17T19:31:16.405Z,77.90
2018-04-17T19:33:43.939Z,77.80
2018-04-17T19:36:11.428Z,79.90
2018-04-17T19:38:39.725Z,78.80
2018-04-17T19:41:08.029Z,79.10
2018-04-17T19:43:35.532Z,79.00
2018-04-17T19:46:03.023Z,79.30
2018-04-17T19:48:31.271Z,79.40
2018-04-17T19:50:58.854Z,79.40
2018-04-17T19:53:26.360Z,79.80
2018-04-17T19:55:53.837Z,79.90
2018-04-17T19:58:21.442Z,79.00
2018-04-17T20:00:49.688Z,80.00
2018-04-17T20:03:17.392Z,79.90
2018-04-17T20:05:44.891Z,81.90
2018-04-17T20:08:12.454Z,82.50
2018-04-17T20:10:39.942Z,82.90
2018-04-17T20:13:08.224Z,84.20
2018-04-17T20:15:36.464Z,84.70
2018-04-17T20:18:03.992Z,84.60
2018-04-17T20:20:32.674Z,84.60
2018-04-17T20:23:00.158Z,86.20
2018-04-17T20:25:27.660Z,86.80
2018-04-17T20:27:55.889Z,88.10
2018-04-17T20:30:23.366Z,88.10
2018-04-17T20:32:50.881Z,89.10
2018-04-17T20:35:18.451Z,89.70
2018-04-17T20:37:45.924Z,90.10
2018-04-17T20:40:13.459Z,90.20
2018-04-17T20:42:41.026Z,90.40
2018-04-17T20:45:08.515Z,91.10
2018-04-17T20:47:36.039Z,90.90
2018-04-17T20:50:03.520Z,91.20
2018-04-17T20:52:31.020Z,91.30
2018-04-17T20:54:59.293Z,91.10
2018-04-17T20:57:27.557Z,91.40
2018-04-17T20:59:55.024Z,91.40
2018-04-17T21:02:23.273Z,91.40
2018-04-17T21:04:50.748Z,91.40
2018-04-17T21:07:18.216Z,91.80
2018-04-17T21:09:45.720Z,91.90
2018-04-17T21:12:13.246Z,91.90
2018-04-17T21:14:41.495Z,92.10
2018-04-17T21:17:08.971Z,92.10
2018-04-17T21:19:36.449Z,92.20
2018-04-17T21:22:04.687Z,92.30
2018-04-17T21:24:32.158Z,92.30
2018-04-17T21:26:59.660Z,92.30
2018-04-17T21:29:27.136Z,92.90
2018-04-17T21:31:54.624Z,93.10
2018-04-17T21:34:23.618Z,93.70
2018-04-17T21:36:51.874Z,93.60
2018-04-17T21:39:19.373Z,93.60
2018-04-17T21:41:47.633Z,92.90
2018-04-17T21:44:16.854Z,92.90
2018-04-17T21:46:45.102Z,92.40
